Bluffs, Illinois
Current Conditions -  °F | °C
As of 9:55 AM on Saturday 25 Oct 2014 (Local Time) from KPPQ Reporting Station
Moderate Fog Moderate Fog  
Wind Chill: 61°   Ceiling: 100
Heat Index: 61°   Visibility: 0.25mi
Dew Point: 60°   Wind: 6mph
Humidity: 95%   Direction: 280°W
Pressure: 30.06"   Gusts: NA
Location:  39.75°N, 90.54°W
Report Text: KPPQ 251455Z AUTO 28005KT 1/4SM FG OVC001 16/16 A3006 RMK AO2 T01630155
Loading
Personal Weather Stations






























Interactive Weather Map
Tropical Storm Tracking
New forecast layout! Learn more

10-Day Weather Forecast

Advertisements
Track Severe Weather on mobile